createdAt,value
2023-05-06T00:00:33.274Z,6.07
2023-05-06T00:10:55.962Z,6.35
2023-05-06T00:21:17.570Z,5.95
2023-05-06T00:31:40.629Z,5.88
2023-05-06T00:42:04.000Z,6.38
2023-05-06T00:52:27.401Z,5.82
2023-05-06T01:02:50.158Z,6.95
2023-05-06T01:13:19.200Z,5.78
2023-05-06T01:23:57.685Z,6.38
2023-05-06T01:34:23.918Z,6.78
2023-05-06T01:44:49.735Z,6.73
2023-05-06T01:55:11.329Z,9.77
2023-05-06T02:05:35.852Z,6.50
2023-05-06T02:15:58.693Z,7.20
2023-05-06T02:26:21.898Z,7.07
2023-05-06T02:36:43.161Z,6.53
2023-05-06T02:47:05.929Z,6.85
2023-05-06T02:57:27.382Z,7.03
2023-05-06T03:07:50.732Z,7.65
2023-05-06T03:18:12.491Z,8.23
2023-05-06T03:28:36.252Z,7.47
2023-05-06T03:38:59.366Z,9.25
2023-05-06T03:49:22.637Z,8.05
2023-05-06T03:59:46.104Z,6.63
2023-05-06T04:10:10.661Z,11.48
2023-05-06T04:20:32.870Z,9.18
2023-05-06T04:30:57.993Z,8.70
2023-05-06T04:41:31.155Z,7.22
2023-05-06T04:51:55.553Z,7.60
2023-05-06T05:02:20.573Z,8.40
2023-05-06T05:12:46.129Z,7.15
2023-05-06T05:23:09.337Z,6.93
2023-05-06T05:33:33.722Z,7.50
2023-05-06T05:43:56.484Z,7.22
2023-05-06T05:54:20.124Z,8.73
2023-05-06T06:04:42.078Z,4.72
2023-05-06T06:15:06.004Z,8.60
2023-05-06T06:25:28.199Z,5.50
2023-05-06T06:35:52.493Z,5.78
2023-05-06T06:46:15.129Z,7.72
2023-05-06T06:56:38.340Z,7.57
2023-05-06T07:06:59.573Z,7.03
2023-05-06T07:17:47.302Z,7.13
2023-05-06T07:28:08.882Z,7.38
2023-05-06T07:38:31.595Z,8.65
2023-05-06T07:48:53.235Z,9.52
2023-05-06T07:59:16.509Z,9.73
2023-05-06T08:09:38.081Z,11.07
2023-05-06T08:20:01.415Z,7.53
2023-05-06T08:30:23.330Z,9.55
2023-05-06T08:40:46.631Z,11.13
2023-05-06T08:51:08.938Z,11.88
2023-05-06T09:01:31.793Z,11.90
2023-05-06T09:11:57.335Z,12.70
2023-05-06T09:22:22.481Z,11.47
2023-05-06T09:32:49.703Z,10.27
2023-05-06T09:43:15.539Z,9.82
2023-05-06T09:53:38.229Z,7.87
2023-05-06T10:04:02.880Z,8.05
2023-05-06T10:14:24.463Z,7.85
2023-05-06T10:24:56.958Z,7.47
2023-05-06T10:35:32.192Z,7.28
2023-05-06T10:46:06.651Z,7.07
2023-05-06T10:56:28.103Z,4.22
2023-05-06T11:06:52.198Z,6.20
2023-05-06T11:17:32.811Z,5.40
2023-05-06T11:27:58.502Z,5.55
2023-05-06T11:38:21.196Z,4.65
2023-05-06T11:48:45.045Z,4.20
2023-05-06T11:59:06.497Z,4.25
2023-05-06T12:09:29.606Z,3.28
2023-05-06T12:19:51.639Z,4.93
2023-05-06T12:30:15.163Z,5.70
2023-05-06T12:40:38.001Z,4.90
2023-05-06T12:51:00.610Z,4.32
2023-05-06T13:01:22.853Z,4.78
2023-05-06T13:23:46.955Z,4.55
2023-05-06T13:34:09.142Z,5.18
2023-05-06T13:45:02.366Z,4.22
2023-05-06T14:06:56.102Z,4.18
2023-05-06T14:17:17.646Z,4.07
2023-05-06T14:27:48.669Z,4.10
2023-05-06T14:38:14.644Z,4.15
2023-05-06T14:48:45.951Z,2.13
2023-05-06T14:59:12.601Z,3.97
2023-05-06T15:09:38.294Z,2.83
2023-05-06T15:20:00.751Z,3.87
2023-05-06T15:30:24.300Z,5.10
2023-05-06T15:40:54.752Z,4.70
2023-05-06T15:51:19.594Z,4.38
2023-05-06T16:02:24.259Z,5.72
2023-05-06T16:12:25.558Z,4.10
2023-05-06T16:22:51.035Z,5.40
2023-05-06T16:33:16.731Z,4.10
2023-05-06T16:43:44.034Z,4.03
2023-05-06T16:54:11.231Z,4.10
2023-05-06T17:51:13.554Z,4.57
2023-05-06T18:01:35.829Z,4.03
2023-05-06T18:12:27.117Z,5.28
2023-05-06T18:34:22.507Z,5.20
2023-05-06T18:44:46.781Z,5.57
2023-05-06T18:55:10.398Z,6.75
2023-05-06T19:05:36.125Z,6.03
2023-05-06T19:16:04.449Z,8.00
2023-05-06T19:26:29.375Z,7.70
2023-05-06T19:36:56.001Z,8.85
2023-05-06T19:47:21.175Z,8.60
2023-05-06T20:19:49.254Z,13.13
2023-05-06T20:30:12.918Z,12.55
2023-05-06T20:40:42.504Z,11.32
2023-05-06T20:51:04.760Z,14.23
2023-05-06T21:01:30.551Z,11.43
2023-05-06T21:11:59.377Z,11.97
2023-05-06T21:22:23.340Z,12.80
2023-05-06T21:32:48.233Z,12.55
2023-05-06T21:43:12.861Z,15.45
2023-05-06T21:53:42.991Z,13.63
2023-05-06T22:04:13.085Z,13.50
2023-05-06T22:14:41.802Z,10.23
2023-05-06T22:25:09.112Z,11.48
2023-05-06T22:35:32.222Z,15.85
2023-05-06T22:45:55.655Z,12.55
2023-05-06T22:56:20.575Z,15.38
2023-05-06T23:06:44.561Z,12.45
2023-05-06T23:17:32.428Z,9.10
2023-05-06T23:27:56.347Z,12.05
2023-05-06T23:38:17.777Z,13.25
2023-05-06T23:48:49.537Z,13.50
2023-05-06T23:59:11.490Z,11.65
